Αρχική σελίδα
METAR-TAF:

METAR-TAF

Αεροδρόμια :

Πόντα Ντελγκάντα, Αζόρες, Πορτογαλία

γεωγραφικό πλάτος: 37-44N, γεωγραφικό μήκος: 025-42W, υψόμετρο: 71 μ

Παρών καιρός

Η αναφορά έγινε 35 λεπτά πριν, στις 03:30 UTC
Άνεμος 2 kt από μεταβλητές κατευθύνσεις
Θερμοκρασία 21°C
Υγρασία 88%
Πίεση 1025 hPa
Ορατότητα 10 χλμ και άνω
Λίγα νέφη σε ύψος 1800 πόδια

METAR: LPPD 230330Z VRB02KT 9999 FEW018 21/19 Q1025

Χρόνος: 04:05 (04:05 UTC)

Πρόγνωση Καιρού

Η αναφορά έγινε 5 ώρες και 5 λεπτά πριν, στις 23:00 UTC
Η πρόγνωση ισχύει από τις 23 στις 00 UTC έως τις 23 στις 24 UTC
Άνεμος 8 kt από Ν/NA
Ορατότητα 10 χλμ και άνω
Διάσπαρτα νέφη σε ύψος 1800 πόδια
Διάσπαρτα νέφη σε ύψος 4000 πόδια

TAF: LPPD 222300Z 2300/2324 15008KT 9999 SCT018 SCT040

Μετεωρολογικές αναφορές και προγνώσεις για περισσότερα από 4000 αεροδρόμια (δελτία METAR και TAF).

Οι διαθέσιμοι σταθμοί απεικονίζονται στο χάρτη με κίτρινες και κόκκινες κουκκίδες.

Μετακινήστε το ποντίκι πάνω από τις κουκκίδες για να δείτε το όνομα του σταθμού.

Στη συνέχεια, κάντε κλικ για να δείτε τις μετεωρολογικές αναφορές και τις προγνώσεις καιρού.

Για να αλλάξετε το χάρτη: κάντε κλικ στα πράσινα κουμπιά με τον μαύρο σταυρό για να ζουμάρετε, στο πράσινο κουμπί με την παύλα για να αφαιρέσετε το ζουμ ή στα πράσινα βέλη για να αντιπαραβάλλετε χάρτες.


METAR-TAF: